createdAt,value
2018-06-19T00:00:31.431Z,18.19
2018-06-19T00:03:00.571Z,18.21
2018-06-19T00:05:30.838Z,18.22
2018-06-19T00:08:01.402Z,18.20
2018-06-19T00:10:30.687Z,18.18
2018-06-19T00:12:59.405Z,18.26
2018-06-19T00:15:28.183Z,18.20
2018-06-19T00:18:02.122Z,18.09
2018-06-19T00:20:30.965Z,18.12
2018-06-19T00:22:59.693Z,18.22
2018-06-19T00:25:28.416Z,18.18
2018-06-19T00:27:57.246Z,18.18
2018-06-19T00:30:25.980Z,18.23
2018-06-19T00:32:54.722Z,18.26
2018-06-19T00:35:23.470Z,18.27
2018-06-19T00:37:52.225Z,18.21
2018-06-19T00:40:20.954Z,18.19
2018-06-19T00:42:49.681Z,18.16
2018-06-19T00:45:18.412Z,18.12
2018-06-19T00:47:47.158Z,18.16
2018-06-19T00:50:15.889Z,18.13
2018-06-19T00:52:44.642Z,18.11
2018-06-19T00:55:13.394Z,18.14
2018-06-19T00:57:42.133Z,18.15
2018-06-19T01:00:10.865Z,18.21
2018-06-19T01:02:39.595Z,18.35
2018-06-19T01:05:08.371Z,18.40
2018-06-19T01:07:37.105Z,18.41
2018-06-19T01:10:05.834Z,18.32
2018-06-19T01:12:34.561Z,18.22
2018-06-19T01:15:03.313Z,18.20
2018-06-19T01:17:32.037Z,18.16
2018-06-19T01:20:00.728Z,18.13
2018-06-19T01:22:29.465Z,18.11
2018-06-19T01:24:58.166Z,18.07
2018-06-19T01:27:26.902Z,17.97
2018-06-19T01:29:55.612Z,17.89
2018-06-19T01:32:24.317Z,17.90
2018-06-19T01:34:53.072Z,17.90
2018-06-19T01:37:21.799Z,17.88
2018-06-19T01:39:50.548Z,17.92
2018-06-19T01:42:19.256Z,17.93
2018-06-19T01:44:48.134Z,18.02
2018-06-19T01:47:16.845Z,18.02
2018-06-19T01:49:45.541Z,17.97
2018-06-19T01:52:14.287Z,17.98
2018-06-19T01:54:43.004Z,18.18
2018-06-19T01:57:11.765Z,18.26
2018-06-19T01:59:40.657Z,18.30
2018-06-19T02:02:09.385Z,18.29
2018-06-19T02:04:38.281Z,18.24
2018-06-19T02:07:07.150Z,18.20
2018-06-19T02:09:35.858Z,18.16
2018-06-19T02:12:04.564Z,18.11
2018-06-19T02:14:33.286Z,18.05
2018-06-19T02:17:02.144Z,17.92
2018-06-19T02:19:30.845Z,17.97
2018-06-19T02:21:59.566Z,17.96
2018-06-19T02:24:28.305Z,17.89
2018-06-19T02:26:57.037Z,17.84
2018-06-19T02:29:25.822Z,17.79
2018-06-19T02:31:54.573Z,17.72
2018-06-19T02:34:23.320Z,17.70
2018-06-19T02:36:52.040Z,17.68
2018-06-19T02:39:20.749Z,17.77
2018-06-19T02:41:49.523Z,17.69
2018-06-19T02:44:18.250Z,17.68
2018-06-19T02:46:47.041Z,17.65
2018-06-19T02:49:15.810Z,17.76
2018-06-19T02:51:44.707Z,17.79
2018-06-19T02:54:13.485Z,17.74
2018-06-19T02:56:42.237Z,17.71
2018-06-19T02:59:10.950Z,17.77
2018-06-19T03:01:39.739Z,17.79
2018-06-19T03:04:08.462Z,17.78
2018-06-19T03:06:37.214Z,17.82
2018-06-19T03:09:08.397Z,17.83
2018-06-19T03:11:37.248Z,17.92
2018-06-19T03:14:06.324Z,17.97
2018-06-19T03:16:35.041Z,17.99
2018-06-19T03:19:04.019Z,18.03
2018-06-19T03:21:33.066Z,18.05
2018-06-19T03:24:01.787Z,18.21
2018-06-19T03:26:30.458Z,18.38
2018-06-19T03:28:59.145Z,18.43
2018-06-19T03:31:27.840Z,18.49
2018-06-19T03:33:56.567Z,18.63
2018-06-19T03:36:30.509Z,18.69
2018-06-19T03:38:59.234Z,18.67
2018-06-19T03:41:27.955Z,18.67
2018-06-19T03:43:56.675Z,18.65
2018-06-19T03:46:25.401Z,18.63
2018-06-19T03:48:54.147Z,18.69
2018-06-19T03:51:22.845Z,18.77
2018-06-19T03:53:51.659Z,18.93
2018-06-19T03:56:20.358Z,19.04
2018-06-19T03:58:49.169Z,19.16
2018-06-19T04:01:18.198Z,19.26
2018-06-19T04:03:46.889Z,19.36
2018-06-19T04:06:15.602Z,19.55
2018-06-19T04:08:44.286Z,19.76
2018-06-19T04:11:13.016Z,19.97
2018-06-19T04:13:41.748Z,20.45
2018-06-19T04:16:10.470Z,20.98
2018-06-19T04:18:39.205Z,21.41
2018-06-19T04:21:07.925Z,21.68
2018-06-19T04:23:36.717Z,21.92
2018-06-19T04:26:05.610Z,22.02
2018-06-19T04:28:34.320Z,22.36
2018-06-19T04:31:03.193Z,22.23
2018-06-19T04:33:31.931Z,21.89
2018-06-19T04:36:00.691Z,21.43
2018-06-19T04:38:29.403Z,21.16
2018-06-19T04:40:58.121Z,20.86
2018-06-19T04:43:26.856Z,20.81
2018-06-19T04:45:55.571Z,21.79
2018-06-19T04:48:24.309Z,22.48
2018-06-19T04:50:53.068Z,22.29
2018-06-19T04:53:21.790Z,21.83
2018-06-19T04:55:50.795Z,21.72
2018-06-19T04:58:19.590Z,21.75
2018-06-19T05:00:48.297Z,21.85
2018-06-19T05:03:17.008Z,22.11
2018-06-19T05:05:45.774Z,22.71
2018-06-19T05:08:14.493Z,23.50
2018-06-19T05:10:43.246Z,25.31
2018-06-19T05:13:11.954Z,27.78
2018-06-19T05:15:40.671Z,30.10
2018-06-19T05:18:09.366Z,31.72
2018-06-19T05:20:38.133Z,32.83
2018-06-19T05:23:06.910Z,32.95
2018-06-19T05:25:35.640Z,33.43
2018-06-19T05:28:04.501Z,34.15
2018-06-19T05:30:33.267Z,34.60
2018-06-19T05:33:02.002Z,33.13
2018-06-19T05:35:30.717Z,32.57
2018-06-19T05:37:59.470Z,33.44
2018-06-19T05:40:28.279Z,33.23
2018-06-19T05:42:57.009Z,31.45
2018-06-19T05:45:25.893Z,32.54
2018-06-19T05:47:54.603Z,32.67
2018-06-19T05:50:23.356Z,32.53
2018-06-19T05:52:52.146Z,32.77
2018-06-19T05:55:20.890Z,32.30
2018-06-19T05:57:49.634Z,32.16
2018-06-19T06:00:18.343Z,31.53
2018-06-19T06:02:47.049Z,32.47
2018-06-19T06:05:15.794Z,33.66
2018-06-19T06:07:44.498Z,35.14
2018-06-19T06:10:13.297Z,36.45
2018-06-19T06:12:42.013Z,37.12
2018-06-19T06:15:10.713Z,37.58
2018-06-19T06:17:39.458Z,37.87
2018-06-19T06:20:08.248Z,38.45
2018-06-19T06:22:37.031Z,38.64
2018-06-19T06:25:05.766Z,38.46
2018-06-19T06:27:34.449Z,38.00
2018-06-19T06:30:03.162Z,38.27
2018-06-19T06:32:31.865Z,38.42
2018-06-19T06:35:00.564Z,39.04
2018-06-19T06:37:29.261Z,39.81
2018-06-19T06:39:58.153Z,38.66
2018-06-19T06:42:26.929Z,38.89
2018-06-19T06:44:55.677Z,38.98
2018-06-19T06:47:24.366Z,36.78
2018-06-19T06:49:53.129Z,36.76
2018-06-19T06:52:21.859Z,35.65
2018-06-19T06:54:50.558Z,33.79
2018-06-19T06:57:19.260Z,32.39
2018-06-19T06:59:47.963Z,31.41
2018-06-19T07:02:16.757Z,30.91
2018-06-19T07:04:45.453Z,30.99
2018-06-19T07:07:14.145Z,31.34
2018-06-19T07:09:42.832Z,31.25
2018-06-19T07:12:11.661Z,31.04
2018-06-19T07:14:40.373Z,29.88
2018-06-19T07:17:09.277Z,30.11
2018-06-19T07:19:38.081Z,30.18
2018-06-19T07:22:06.350Z,29.35
2018-06-19T07:24:35.047Z,29.04
2018-06-19T07:27:03.781Z,28.78
2018-06-19T07:29:32.486Z,28.97
2018-06-19T07:32:01.418Z,28.48
2018-06-19T07:34:30.167Z,28.29
2018-06-19T07:36:58.905Z,28.66
2018-06-19T07:39:27.666Z,28.46
2018-06-19T07:41:56.566Z,28.62
2018-06-19T07:44:25.357Z,29.26
2018-06-19T07:46:54.082Z,31.52
2018-06-19T07:49:23.249Z,33.12
2018-06-19T07:51:51.956Z,32.01
2018-06-19T07:54:20.683Z,32.26
2018-06-19T07:56:49.442Z,31.78
2018-06-19T07:59:18.154Z,32.01
2018-06-19T08:01:47.253Z,32.48
2018-06-19T08:04:15.986Z,30.93
2018-06-19T08:06:44.670Z,31.29
2018-06-19T08:09:13.486Z,31.50
2018-06-19T08:11:42.169Z,30.97
2018-06-19T08:14:10.888Z,30.39
2018-06-19T08:16:39.640Z,29.49
2018-06-19T08:19:08.358Z,29.53
2018-06-19T08:21:37.091Z,29.25
2018-06-19T08:24:05.798Z,29.49
2018-06-19T08:26:34.515Z,29.62
2018-06-19T08:29:03.255Z,29.84
2018-06-19T08:31:31.992Z,30.96
2018-06-19T08:34:00.678Z,31.94
2018-06-19T08:36:29.377Z,33.58
2018-06-19T08:38:58.074Z,34.56
2018-06-19T08:41:26.814Z,34.85
2018-06-19T08:43:55.501Z,33.83
2018-06-19T08:46:24.202Z,34.91
2018-06-19T08:48:52.904Z,33.93
2018-06-19T08:51:21.839Z,33.77
2018-06-19T08:53:50.614Z,33.95
2018-06-19T08:56:19.370Z,33.62
2018-06-19T08:58:48.079Z,34.01
2018-06-19T09:01:16.814Z,34.10
2018-06-19T09:03:45.534Z,34.63
2018-06-19T09:06:14.499Z,35.58
2018-06-19T09:08:43.234Z,36.87
2018-06-19T09:11:11.925Z,36.04
2018-06-19T09:13:40.629Z,34.53
2018-06-19T09:16:09.352Z,33.39
2018-06-19T09:18:38.312Z,33.16
2018-06-19T09:21:08.318Z,32.85
2018-06-19T09:23:37.427Z,32.88
2018-06-19T09:26:06.642Z,32.39
2018-06-19T09:28:35.471Z,32.32
2018-06-19T09:31:04.242Z,32.82
2018-06-19T09:33:32.988Z,34.29
2018-06-19T09:36:01.687Z,35.27
2018-06-19T09:38:30.511Z,35.85
2018-06-19T09:40:59.234Z,34.37
2018-06-19T09:43:27.954Z,33.89
2018-06-19T09:45:56.791Z,33.30
2018-06-19T09:48:25.518Z,34.26
2018-06-19T09:50:54.241Z,34.61
2018-06-19T09:53:23.013Z,35.21
2018-06-19T09:55:51.753Z,34.53
2018-06-19T09:58:20.493Z,34.88
2018-06-19T10:00:49.221Z,35.21
2018-06-19T10:03:17.912Z,34.99
2018-06-19T10:05:46.749Z,35.99
2018-06-19T10:08:15.449Z,36.37
2018-06-19T10:10:44.137Z,36.70
2018-06-19T10:13:12.833Z,37.62
2018-06-19T10:15:41.545Z,38.16
2018-06-19T10:18:10.237Z,38.17
2018-06-19T10:20:39.037Z,37.30
2018-06-19T10:23:07.887Z,37.57
2018-06-19T10:25:36.594Z,37.22
2018-06-19T10:28:05.396Z,38.48
2018-06-19T10:30:34.085Z,39.15
2018-06-19T10:33:02.902Z,39.03
2018-06-19T10:35:31.597Z,38.68
2018-06-19T10:38:00.291Z,36.96
2018-06-19T10:40:28.998Z,36.36
2018-06-19T10:42:57.710Z,35.46
2018-06-19T10:45:26.409Z,36.62
2018-06-19T10:47:55.149Z,37.59
2018-06-19T10:50:23.913Z,38.78
2018-06-19T10:52:52.625Z,39.35
2018-06-19T10:55:21.358Z,38.54
2018-06-19T10:57:50.053Z,38.73
2018-06-19T11:00:19.217Z,40.14
2018-06-19T11:02:48.404Z,39.99
2018-06-19T11:05:17.122Z,39.13
2018-06-19T11:07:45.856Z,38.56
2018-06-19T11:10:14.621Z,37.84
2018-06-19T11:12:43.897Z,37.09
2018-06-19T11:15:12.661Z,38.28
2018-06-19T11:17:41.412Z,38.26
2018-06-19T11:20:10.269Z,38.92
2018-06-19T11:22:39.160Z,38.23
2018-06-19T11:25:08.019Z,38.43
2018-06-19T11:27:36.737Z,37.28
2018-06-19T11:30:05.767Z,36.58
2018-06-19T11:32:34.465Z,35.86
2018-06-19T11:35:03.202Z,36.61
2018-06-19T11:37:31.901Z,36.34
2018-06-19T11:40:00.594Z,35.46
2018-06-19T11:42:29.301Z,35.86
2018-06-19T11:44:58.031Z,35.32
2018-06-19T11:47:26.822Z,34.38
2018-06-19T11:49:55.525Z,34.14
2018-06-19T11:52:24.283Z,34.29
2018-06-19T11:54:53.243Z,35.53
2018-06-19T11:57:21.955Z,37.40
2018-06-19T11:59:50.683Z,37.69
2018-06-19T12:02:19.463Z,38.40
2018-06-19T12:04:48.217Z,36.86
2018-06-19T12:07:16.942Z,37.19
2018-06-19T12:09:45.652Z,36.61
2018-06-19T12:12:14.390Z,37.11
2018-06-19T12:14:45.045Z,37.95
2018-06-19T12:17:14.813Z,37.28
2018-06-19T12:19:43.570Z,37.22
2018-06-19T12:22:12.274Z,35.36
2018-06-19T12:24:40.987Z,35.52
2018-06-19T12:27:09.678Z,35.56
2018-06-19T12:29:38.442Z,35.32
2018-06-19T12:32:07.155Z,34.97
2018-06-19T12:34:35.874Z,34.18
2018-06-19T12:37:04.567Z,33.43
2018-06-19T12:39:33.282Z,33.60
2018-06-19T12:42:02.022Z,33.43
2018-06-19T12:44:30.717Z,32.85
2018-06-19T12:46:59.433Z,32.45
2018-06-19T12:49:39.242Z,33.02
2018-06-19T12:52:19.868Z,32.47
2018-06-19T12:55:57.322Z,32.22
2018-06-19T12:58:26.021Z,32.26
2018-06-19T13:00:54.715Z,32.63
2018-06-19T13:03:34.473Z,32.26
2018-06-19T13:06:14.156Z,32.57
2018-06-19T13:08:42.873Z,32.47
2018-06-19T13:11:11.576Z,32.77
2018-06-19T13:13:51.371Z,33.45
2018-06-19T13:16:31.145Z,33.95
2018-06-19T13:19:10.970Z,33.92
2018-06-19T13:21:39.689Z,33.44
2018-06-19T13:24:08.432Z,33.39
2018-06-19T13:26:37.137Z,33.23
2018-06-19T13:29:45.253Z,32.89
2018-06-19T13:32:14.022Z,32.99
2018-06-19T13:34:42.799Z,32.85
2018-06-19T13:37:11.533Z,32.53
2018-06-19T13:39:40.853Z,31.71
2018-06-19T13:42:22.098Z,31.40
2018-06-19T13:44:59.968Z,31.64
2018-06-19T13:47:28.696Z,31.82
2018-06-19T13:49:57.406Z,31.69
2018-06-19T13:52:27.009Z,31.86
2018-06-19T13:56:08.002Z,31.74
2018-06-19T13:58:37.582Z,31.41
2018-06-19T14:01:06.699Z,31.46
2018-06-19T14:03:35.494Z,31.29
2018-06-19T14:06:04.196Z,31.23
2018-06-19T14:08:45.892Z,31.14
2018-06-19T14:11:25.947Z,31.22
2018-06-19T14:13:54.670Z,31.62
2018-06-19T14:16:23.391Z,31.88
2018-06-19T14:18:52.116Z,31.92
2018-06-19T14:21:20.881Z,31.85
2018-06-19T14:23:49.573Z,31.82
2018-06-19T14:26:18.273Z,31.92
2018-06-19T14:28:47.021Z,31.84
2018-06-19T14:31:15.742Z,31.40
2018-06-19T14:33:44.489Z,31.58
2018-06-19T14:36:13.197Z,31.47
2018-06-19T14:38:41.932Z,31.31
2018-06-19T14:41:10.654Z,31.31
2018-06-19T14:43:39.413Z,31.18
2018-06-19T14:46:08.133Z,31.24
2018-06-19T14:48:36.842Z,31.39
2018-06-19T14:51:05.701Z,31.54
2018-06-19T14:53:34.485Z,31.69
2018-06-19T14:56:03.310Z,31.53
2018-06-19T14:58:32.019Z,31.52
2018-06-19T15:01:00.800Z,31.50
2018-06-19T15:03:29.506Z,31.22
2018-06-19T15:05:58.429Z,31.00
2018-06-19T15:08:27.165Z,30.64
2018-06-19T15:10:55.924Z,30.37
2018-06-19T15:13:24.631Z,30.19
2018-06-19T15:15:53.351Z,30.13
2018-06-19T15:18:22.144Z,30.08
2018-06-19T15:20:50.924Z,30.00
2018-06-19T15:23:19.646Z,29.78
2018-06-19T15:25:48.371Z,29.32
2018-06-19T15:28:17.123Z,29.24
2018-06-19T15:30:45.872Z,29.22
2018-06-19T15:33:14.733Z,29.16
2018-06-19T15:35:43.446Z,29.13
2018-06-19T15:38:12.141Z,29.09
2018-06-19T15:40:40.861Z,29.11
2018-06-19T15:43:09.613Z,29.12
2018-06-19T15:45:38.343Z,29.10
2018-06-19T15:48:07.087Z,29.11
2018-06-19T15:50:35.788Z,29.10
2018-06-19T15:53:04.647Z,29.01
2018-06-19T15:55:33.361Z,28.89
2018-06-19T15:58:02.261Z,28.82
2018-06-19T16:00:31.107Z,28.71
2018-06-19T16:03:00.024Z,28.66
2018-06-19T16:05:28.822Z,28.61
2018-06-19T16:08:02.672Z,28.48
2018-06-19T16:10:31.539Z,28.38
2018-06-19T16:13:00.238Z,28.38
2018-06-19T16:15:28.982Z,28.36
2018-06-19T16:17:57.676Z,28.33
2018-06-19T16:20:26.423Z,28.35
2018-06-19T16:22:55.157Z,28.35
2018-06-19T16:25:23.869Z,28.35
2018-06-19T16:27:52.553Z,28.33
2018-06-19T16:30:21.271Z,28.28
2018-06-19T16:32:49.999Z,28.23
2018-06-19T16:35:18.750Z,28.23
2018-06-19T16:37:47.505Z,28.17
2018-06-19T16:40:16.282Z,28.09
2018-06-19T16:42:45.020Z,28.00
2018-06-19T16:45:13.734Z,27.84
2018-06-19T16:47:42.454Z,27.73
2018-06-19T16:50:11.185Z,27.60
2018-06-19T16:52:39.986Z,27.50
2018-06-19T16:55:08.722Z,27.36
2018-06-19T16:57:37.472Z,27.27
2018-06-19T17:00:07.163Z,27.11
2018-06-19T17:02:35.901Z,26.99
2018-06-19T17:05:04.613Z,26.84
2018-06-19T17:07:33.332Z,26.69
2018-06-19T17:10:02.038Z,26.50
2018-06-19T17:12:30.822Z,26.33
2018-06-19T17:14:59.538Z,26.17
2018-06-19T17:17:28.298Z,26.02
2018-06-19T17:19:57.275Z,25.85
2018-06-19T17:22:26.010Z,25.69
2018-06-19T17:24:54.727Z,25.54
2018-06-19T17:27:23.481Z,25.37
2018-06-19T17:29:52.166Z,25.23
2018-06-19T17:32:21.015Z,25.04
2018-06-19T17:34:49.725Z,24.92
2018-06-19T17:37:18.622Z,24.80
2018-06-19T17:39:47.346Z,24.66
2018-06-19T17:42:21.500Z,24.51
2018-06-19T17:44:50.355Z,24.23
2018-06-19T17:47:19.137Z,24.20
2018-06-19T17:49:47.829Z,24.13
2018-06-19T17:52:16.584Z,24.03
2018-06-19T17:54:45.416Z,23.98
2018-06-19T17:57:14.184Z,23.89
2018-06-19T17:59:43.530Z,23.77
2018-06-19T18:02:12.481Z,23.66
2018-06-19T18:04:41.423Z,23.54
2018-06-19T18:07:10.301Z,23.48
2018-06-19T18:09:39.071Z,23.39
2018-06-19T18:12:07.796Z,23.32
2018-06-19T18:14:36.514Z,23.26
2018-06-19T18:17:05.485Z,23.17
2018-06-19T18:19:34.571Z,23.15
2018-06-19T18:22:05.243Z,23.09
2018-06-19T18:24:37.170Z,23.07
2018-06-19T18:27:12.816Z,23.05
2018-06-19T18:29:48.137Z,23.01
2018-06-19T18:32:21.788Z,22.98
2018-06-19T18:34:56.264Z,23.01
2018-06-19T18:37:31.507Z,23.04
2018-06-19T18:40:00.938Z,22.99
2018-06-19T18:42:31.983Z,22.97
2018-06-19T18:45:01.371Z,22.97
2018-06-19T18:47:30.338Z,22.93
2018-06-19T18:49:59.208Z,22.81
2018-06-19T18:52:28.474Z,22.73
2018-06-19T18:54:57.363Z,22.67
2018-06-19T18:57:26.413Z,22.53
2018-06-19T18:59:55.550Z,22.45
2018-06-19T19:02:26.431Z,22.37
2018-06-19T19:04:55.578Z,22.30
2018-06-19T19:07:25.299Z,22.22
2018-06-19T19:10:00.686Z,22.12
2018-06-19T19:12:31.368Z,22.11
2018-06-19T19:15:06.697Z,22.03
2018-06-19T19:17:40.703Z,21.94
2018-06-19T19:20:10.253Z,21.83
2018-06-19T19:22:39.023Z,21.72
2018-06-19T19:25:07.811Z,21.63
2018-06-19T19:27:41.680Z,21.60
2018-06-19T19:30:10.994Z,21.50
2018-06-19T19:32:39.769Z,21.39
2018-06-19T19:35:08.525Z,21.30
2018-06-19T19:37:42.833Z,21.30
2018-06-19T19:40:12.018Z,21.29
2018-06-19T19:42:41.631Z,21.23
2018-06-19T19:45:11.625Z,21.17
2018-06-19T19:47:46.195Z,21.13
2018-06-19T19:50:15.115Z,21.06
2018-06-19T19:52:43.854Z,20.99
2018-06-19T19:55:12.603Z,20.98
2018-06-19T19:57:46.429Z,20.80
2018-06-19T20:00:19.269Z,20.77
2018-06-19T20:02:48.759Z,20.73
2018-06-19T20:05:17.475Z,20.72
2018-06-19T20:07:46.164Z,20.67
2018-06-19T20:10:15.131Z,20.64
2018-06-19T20:12:43.837Z,20.57
2018-06-19T20:15:13.374Z,20.54
2018-06-19T20:17:42.188Z,20.51
2018-06-19T20:20:11.863Z,20.41
2018-06-19T20:22:40.750Z,20.40
2018-06-19T20:25:09.909Z,20.32
2018-06-19T20:27:38.722Z,20.36
2018-06-19T20:30:08.579Z,20.42
2018-06-19T20:32:37.314Z,20.46
2018-06-19T20:35:06.068Z,20.50
2018-06-19T20:37:34.796Z,20.55
2018-06-19T20:40:03.542Z,20.55
2018-06-19T20:42:32.269Z,20.53
2018-06-19T20:45:01.202Z,20.56
2018-06-19T20:47:30.545Z,20.51
2018-06-19T20:49:59.599Z,20.45
2018-06-19T20:52:28.337Z,20.42
2018-06-19T20:54:57.087Z,20.35
2018-06-19T20:57:25.820Z,20.28
2018-06-19T20:59:54.553Z,20.31
2018-06-19T21:02:23.276Z,20.24
2018-06-19T21:04:52.050Z,20.35
2018-06-19T21:07:20.807Z,20.36
2018-06-19T21:09:49.524Z,20.30
2018-06-19T21:12:18.234Z,20.33
2018-06-19T21:14:46.968Z,20.21
2018-06-19T21:17:15.713Z,20.07
2018-06-19T21:19:44.439Z,19.96
2018-06-19T21:22:13.172Z,19.91
2018-06-19T21:24:41.895Z,19.84
2018-06-19T21:27:10.623Z,19.75
2018-06-19T21:29:39.357Z,19.63
2018-06-19T21:32:08.412Z,19.67
2018-06-19T21:34:37.190Z,19.65
2018-06-19T21:37:06.084Z,19.72
2018-06-19T21:39:34.819Z,19.73
2018-06-19T21:42:03.546Z,19.68
2018-06-19T21:44:32.269Z,19.62
2018-06-19T21:47:00.982Z,19.67
2018-06-19T21:49:29.718Z,19.77
2018-06-19T21:51:58.425Z,19.73
2018-06-19T21:54:27.164Z,19.66
2018-06-19T21:56:55.869Z,19.56
2018-06-19T21:59:24.575Z,19.49
2018-06-19T22:01:53.269Z,19.54
2018-06-19T22:04:21.961Z,19.49
2018-06-19T22:06:50.690Z,19.48
2018-06-19T22:09:19.405Z,19.56
2018-06-19T22:11:48.177Z,19.47
2018-06-19T22:14:16.917Z,19.32
2018-06-19T22:16:45.651Z,19.24
2018-06-19T22:19:14.353Z,19.23
2018-06-19T22:21:43.070Z,19.35
2018-06-19T22:24:11.794Z,19.35
2018-06-19T22:26:40.647Z,19.32
2018-06-19T22:29:09.333Z,19.21
2018-06-19T22:31:38.054Z,19.08
2018-06-19T22:34:06.798Z,18.97
2018-06-19T22:36:35.513Z,18.95
2018-06-19T22:39:05.957Z,18.92
2018-06-19T22:41:34.690Z,18.79
2018-06-19T22:44:03.440Z,18.75
2018-06-19T22:46:32.166Z,18.67
2018-06-19T22:49:01.062Z,18.62
2018-06-19T22:51:29.797Z,18.58
2018-06-19T22:53:58.535Z,18.53
2018-06-19T22:56:27.337Z,18.54
2018-06-19T22:58:56.073Z,18.59
2018-06-19T23:01:24.831Z,18.60
2018-06-19T23:03:53.602Z,18.70
2018-06-19T23:06:22.340Z,18.90
2018-06-19T23:08:51.187Z,18.85
2018-06-19T23:11:19.932Z,18.75
2018-06-19T23:13:48.634Z,18.56
2018-06-19T23:16:17.433Z,18.43
2018-06-19T23:18:46.157Z,18.47
2018-06-19T23:21:14.869Z,18.35
2018-06-19T23:23:43.565Z,18.36
2018-06-19T23:26:12.316Z,18.26
2018-06-19T23:28:41.054Z,18.27
2018-06-19T23:31:09.794Z,18.23
2018-06-19T23:33:38.603Z,18.28
2018-06-19T23:36:07.577Z,18.27
2018-06-19T23:38:36.402Z,18.24
2018-06-19T23:41:05.169Z,18.27
2018-06-19T23:43:33.881Z,18.29
2018-06-19T23:46:02.595Z,18.38
2018-06-19T23:48:31.300Z,18.24
2018-06-19T23:51:00.039Z,18.14
2018-06-19T23:53:28.770Z,18.13
2018-06-19T23:55:57.474Z,18.09
2018-06-19T23:58:26.223Z,17.98
